sensor_id;sensor_type;location;lat;lon;timestamp;P1;durP1;ratioP1;P2;durP2;ratioP2
8254;SDS011;4167;48.162;11.542;2022-11-27T00:02:11;227.70;;;52.23;;
8254;SDS011;4167;48.162;11.542;2022-11-27T00:04:37;223.97;;;51.87;;
8254;SDS011;4167;48.162;11.542;2022-11-27T00:07:04;226.50;;;52.73;;
8254;SDS011;4167;48.162;11.542;2022-11-27T00:09:32;226.77;;;53.83;;
8254;SDS011;4167;48.162;11.542;2022-11-27T00:11:59;194.27;;;49.37;;
8254;SDS011;4167;48.162;11.542;2022-11-27T00:14:25;195.23;;;50.47;;
8254;SDS011;4167;48.162;11.542;2022-11-27T00:16:52;273.70;;;54.93;;
8254;SDS011;4167;48.162;11.542;2022-11-27T00:19:18;225.57;;;52.67;;
8254;SDS011;4167;48.162;11.542;2022-11-27T00:21:45;252.43;;;53.10;;
8254;SDS011;4167;48.162;11.542;2022-11-27T00:24:11;249.60;;;53.53;;
8254;SDS011;4167;48.162;11.542;2022-11-27T00:26:39;196.10;;;50.50;;
8254;SDS011;4167;48.162;11.542;2022-11-27T00:29:05;213.20;;;50.80;;
8254;SDS011;4167;48.162;11.542;2022-11-27T00:31:33;226.13;;;52.93;;
8254;SDS011;4167;48.162;11.542;2022-11-27T00:34:01;239.33;;;52.83;;
8254;SDS011;4167;48.162;11.542;2022-11-27T00:36:29;234.50;;;53.33;;
8254;SDS011;4167;48.162;11.542;2022-11-27T00:38:57;217.97;;;53.80;;
8254;SDS011;4167;48.162;11.542;2022-11-27T00:41:25;202.93;;;52.00;;
8254;SDS011;4167;48.162;11.542;2022-11-27T00:43:54;226.67;;;53.03;;
8254;SDS011;4167;48.162;11.542;2022-11-27T00:46:22;192.50;;;50.53;;
8254;SDS011;4167;48.162;11.542;2022-11-27T00:48:49;218.10;;;52.17;;
8254;SDS011;4167;48.162;11.542;2022-11-27T00:51:16;212.00;;;50.90;;
8254;SDS011;4167;48.162;11.542;2022-11-27T00:53:44;188.23;;;49.47;;
8254;SDS011;4167;48.162;11.542;2022-11-27T00:56:13;212.50;;;52.10;;
8254;SDS011;4167;48.162;11.542;2022-11-27T00:58:41;205.10;;;50.97;;
8254;SDS011;4167;48.162;11.542;2022-11-27T01:01:14;196.17;;;50.07;;
8254;SDS011;4167;48.162;11.542;2022-11-27T01:03:42;181.87;;;51.47;;
8254;SDS011;4167;48.162;11.542;2022-11-27T01:06:09;252.73;;;53.93;;
8254;SDS011;4167;48.162;11.542;2022-11-27T01:08:36;147.90;;;49.10;;
8254;SDS011;4167;48.162;11.542;2022-11-27T01:11:03;241.53;;;53.63;;
8254;SDS011;4167;48.162;11.542;2022-11-27T01:13:30;193.43;;;50.97;;
8254;SDS011;4167;48.162;11.542;2022-11-27T01:15:58;213.03;;;52.03;;
8254;SDS011;4167;48.162;11.542;2022-11-27T01:18:26;184.13;;;50.63;;
8254;SDS011;4167;48.162;11.542;2022-11-27T01:20:54;223.37;;;53.97;;
8254;SDS011;4167;48.162;11.542;2022-11-27T01:23:21;206.07;;;52.20;;
8254;SDS011;4167;48.162;11.542;2022-11-27T01:25:47;195.30;;;51.87;;
8254;SDS011;4167;48.162;11.542;2022-11-27T01:28:14;217.53;;;52.97;;
8254;SDS011;4167;48.162;11.542;2022-11-27T01:30:41;195.07;;;51.93;;
8254;SDS011;4167;48.162;11.542;2022-11-27T01:33:07;198.43;;;51.60;;
8254;SDS011;4167;48.162;11.542;2022-11-27T01:35:35;258.77;;;56.40;;
8254;SDS011;4167;48.162;11.542;2022-11-27T01:38:02;244.87;;;55.47;;
8254;SDS011;4167;48.162;11.542;2022-11-27T01:40:28;175.07;;;51.57;;
8254;SDS011;4167;48.162;11.542;2022-11-27T01:42:55;232.53;;;54.70;;
8254;SDS011;4167;48.162;11.542;2022-11-27T01:45:22;214.73;;;54.33;;
8254;SDS011;4167;48.162;11.542;2022-11-27T01:47:49;239.57;;;55.40;;
8254;SDS011;4167;48.162;11.542;2022-11-27T01:50:17;241.20;;;56.23;;
8254;SDS011;4167;48.162;11.542;2022-11-27T01:52:49;209.93;;;52.90;;
8254;SDS011;4167;48.162;11.542;2022-11-27T01:55:19;198.47;;;53.57;;
8254;SDS011;4167;48.162;11.542;2022-11-27T01:57:48;196.10;;;51.93;;
8254;SDS011;4167;48.162;11.542;2022-11-27T02:00:17;188.53;;;53.87;;
8254;SDS011;4167;48.162;11.542;2022-11-27T02:02:44;178.87;;;51.93;;
8254;SDS011;4167;48.162;11.542;2022-11-27T02:05:11;203.90;;;55.13;;
8254;SDS011;4167;48.162;11.542;2022-11-27T02:07:40;211.50;;;54.20;;
8254;SDS011;4167;48.162;11.542;2022-11-27T02:10:08;189.03;;;53.80;;
8254;SDS011;4167;48.162;11.542;2022-11-27T02:12:38;173.60;;;52.80;;
8254;SDS011;4167;48.162;11.542;2022-11-27T02:15:10;165.90;;;51.93;;
8254;SDS011;4167;48.162;11.542;2022-11-27T02:17:42;167.10;;;50.33;;
8254;SDS011;4167;48.162;11.542;2022-11-27T02:20:18;210.57;;;53.87;;
8254;SDS011;4167;48.162;11.542;2022-11-27T02:22:56;191.83;;;50.90;;
8254;SDS011;4167;48.162;11.542;2022-11-27T02:25:36;160.60;;;50.57;;
8254;SDS011;4167;48.162;11.542;2022-11-27T02:28:15;174.40;;;51.27;;
8254;SDS011;4167;48.162;11.542;2022-11-27T02:30:49;180.47;;;51.50;;
8254;SDS011;4167;48.162;11.542;2022-11-27T02:33:17;200.67;;;51.83;;
8254;SDS011;4167;48.162;11.542;2022-11-27T02:35:47;181.53;;;50.07;;
8254;SDS011;4167;48.162;11.542;2022-11-27T02:38:16;186.10;;;50.43;;
8254;SDS011;4167;48.162;11.542;2022-11-27T02:40:46;162.87;;;49.17;;
8254;SDS011;4167;48.162;11.542;2022-11-27T02:43:17;150.30;;;48.50;;
8254;SDS011;4167;48.162;11.542;2022-11-27T02:45:47;210.93;;;50.33;;
8254;SDS011;4167;48.162;11.542;2022-11-27T02:48:17;208.60;;;50.93;;
8254;SDS011;4167;48.162;11.542;2022-11-27T02:50:45;158.33;;;47.77;;
8254;SDS011;4167;48.162;11.542;2022-11-27T02:53:14;195.17;;;49.90;;
8254;SDS011;4167;48.162;11.542;2022-11-27T02:55:43;174.03;;;48.57;;
8254;SDS011;4167;48.162;11.542;2022-11-27T02:58:11;189.30;;;49.57;;
8254;SDS011;4167;48.162;11.542;2022-11-27T03:00:39;193.13;;;50.87;;
8254;SDS011;4167;48.162;11.542;2022-11-27T03:03:08;140.60;;;47.57;;
8254;SDS011;4167;48.162;11.542;2022-11-27T03:05:38;189.40;;;49.67;;
8254;SDS011;4167;48.162;11.542;2022-11-27T03:08:06;150.97;;;47.47;;
8254;SDS011;4167;48.162;11.542;2022-11-27T03:10:35;132.07;;;46.23;;
8254;SDS011;4167;48.162;11.542;2022-11-27T03:13:05;185.50;;;49.47;;
8254;SDS011;4167;48.162;11.542;2022-11-27T03:15:33;194.17;;;50.67;;
8254;SDS011;4167;48.162;11.542;2022-11-27T03:18:05;175.13;;;49.27;;
8254;SDS011;4167;48.162;11.542;2022-11-27T03:20:39;221.57;;;50.83;;
8254;SDS011;4167;48.162;11.542;2022-11-27T03:23:06;184.83;;;48.23;;
8254;SDS011;4167;48.162;11.542;2022-11-27T03:25:33;167.67;;;48.97;;
8254;SDS011;4167;48.162;11.542;2022-11-27T03:28:01;175.50;;;48.63;;
8254;SDS011;4167;48.162;11.542;2022-11-27T03:30:29;182.40;;;49.10;;
8254;SDS011;4167;48.162;11.542;2022-11-27T03:32:55;197.33;;;49.10;;
8254;SDS011;4167;48.162;11.542;2022-11-27T03:35:24;194.63;;;49.03;;
8254;SDS011;4167;48.162;11.542;2022-11-27T03:37:52;242.43;;;52.20;;
8254;SDS011;4167;48.162;11.542;2022-11-27T03:40:19;203.50;;;51.23;;
8254;SDS011;4167;48.162;11.542;2022-11-27T03:42:51;195.80;;;48.90;;
8254;SDS011;4167;48.162;11.542;2022-11-27T03:45:24;174.17;;;49.67;;
8254;SDS011;4167;48.162;11.542;2022-11-27T03:47:57;201.60;;;50.57;;
8254;SDS011;4167;48.162;11.542;2022-11-27T03:50:32;161.23;;;47.53;;
8254;SDS011;4167;48.162;11.542;2022-11-27T03:53:06;215.03;;;51.17;;
8254;SDS011;4167;48.162;11.542;2022-11-27T03:55:36;180.27;;;49.60;;
8254;SDS011;4167;48.162;11.542;2022-11-27T03:58:08;179.33;;;49.30;;
8254;SDS011;4167;48.162;11.542;2022-11-27T04:00:38;168.77;;;48.20;;
8254;SDS011;4167;48.162;11.542;2022-11-27T04:03:08;180.70;;;47.90;;
8254;SDS011;4167;48.162;11.542;2022-11-27T04:05:37;204.63;;;50.03;;
8254;SDS011;4167;48.162;11.542;2022-11-27T04:08:03;210.10;;;49.90;;
8254;SDS011;4167;48.162;11.542;2022-11-27T04:10:31;196.30;;;49.50;;
8254;SDS011;4167;48.162;11.542;2022-11-27T04:12:57;198.97;;;48.63;;
8254;SDS011;4167;48.162;11.542;2022-11-27T04:15:24;223.53;;;50.43;;
8254;SDS011;4167;48.162;11.542;2022-11-27T04:17:50;166.70;;;47.43;;
8254;SDS011;4167;48.162;11.542;2022-11-27T04:20:17;209.47;;;50.37;;
8254;SDS011;4167;48.162;11.542;2022-11-27T04:22:45;138.57;;;46.83;;
8254;SDS011;4167;48.162;11.542;2022-11-27T04:25:11;175.40;;;50.47;;
8254;SDS011;4167;48.162;11.542;2022-11-27T04:27:38;284.10;;;55.87;;
8254;SDS011;4167;48.162;11.542;2022-11-27T04:30:05;240.83;;;52.47;;
8254;SDS011;4167;48.162;11.542;2022-11-27T04:32:32;264.50;;;53.97;;
8254;SDS011;4167;48.162;11.542;2022-11-27T04:34:59;295.47;;;56.70;;
8254;SDS011;4167;48.162;11.542;2022-11-27T04:37:25;230.43;;;52.17;;
8254;SDS011;4167;48.162;11.542;2022-11-27T04:39:53;268.27;;;53.80;;
8254;SDS011;4167;48.162;11.542;2022-11-27T04:42:20;229.00;;;51.73;;
8254;SDS011;4167;48.162;11.542;2022-11-27T04:44:47;321.57;;;56.27;;
8254;SDS011;4167;48.162;11.542;2022-11-27T04:47:13;275.97;;;54.60;;
8254;SDS011;4167;48.162;11.542;2022-11-27T04:49:40;228.00;;;52.63;;
8254;SDS011;4167;48.162;11.542;2022-11-27T04:52:06;288.10;;;55.30;;
8254;SDS011;4167;48.162;11.542;2022-11-27T04:54:34;307.40;;;57.43;;
8254;SDS011;4167;48.162;11.542;2022-11-27T04:57:02;308.03;;;56.17;;
8254;SDS011;4167;48.162;11.542;2022-11-27T04:59:29;224.93;;;51.33;;
8254;SDS011;4167;48.162;11.542;2022-11-27T05:01:56;311.23;;;56.50;;
8254;SDS011;4167;48.162;11.542;2022-11-27T05:04:22;304.47;;;55.47;;
8254;SDS011;4167;48.162;11.542;2022-11-27T05:06:49;259.57;;;54.67;;
8254;SDS011;4167;48.162;11.542;2022-11-27T05:09:16;249.53;;;52.43;;
8254;SDS011;4167;48.162;11.542;2022-11-27T05:11:43;264.40;;;53.57;;
8254;SDS011;4167;48.162;11.542;2022-11-27T05:14:11;273.77;;;55.00;;
8254;SDS011;4167;48.162;11.542;2022-11-27T05:16:41;262.37;;;53.03;;
8254;SDS011;4167;48.162;11.542;2022-11-27T05:19:08;299.83;;;55.87;;
8254;SDS011;4167;48.162;11.542;2022-11-27T05:21:35;227.93;;;51.53;;
8254;SDS011;4167;48.162;11.542;2022-11-27T05:24:02;244.27;;;52.40;;
8254;SDS011;4167;48.162;11.542;2022-11-27T05:26:29;199.63;;;49.37;;
8254;SDS011;4167;48.162;11.542;2022-11-27T05:28:55;286.27;;;55.83;;
8254;SDS011;4167;48.162;11.542;2022-11-27T05:31:23;232.60;;;51.63;;
8254;SDS011;4167;48.162;11.542;2022-11-27T05:33:50;236.47;;;51.53;;
8254;SDS011;4167;48.162;11.542;2022-11-27T05:36:17;241.00;;;52.90;;
8254;SDS011;4167;48.162;11.542;2022-11-27T05:38:44;216.37;;;50.83;;
8254;SDS011;4167;48.162;11.542;2022-11-27T05:41:10;306.20;;;57.47;;
8254;SDS011;4167;48.162;11.542;2022-11-27T05:43:37;235.60;;;52.57;;
8254;SDS011;4167;48.162;11.542;2022-11-27T05:46:04;272.53;;;53.13;;
8254;SDS011;4167;48.162;11.542;2022-11-27T05:48:33;234.43;;;52.20;;
8254;SDS011;4167;48.162;11.542;2022-11-27T05:50:59;292.33;;;55.40;;
8254;SDS011;4167;48.162;11.542;2022-11-27T05:53:26;299.10;;;55.83;;
8254;SDS011;4167;48.162;11.542;2022-11-27T05:55:53;290.07;;;56.03;;
8254;SDS011;4167;48.162;11.542;2022-11-27T05:58:19;314.43;;;56.83;;
8254;SDS011;4167;48.162;11.542;2022-11-27T06:00:46;300.97;;;56.00;;
8254;SDS011;4167;48.162;11.542;2022-11-27T06:03:13;228.47;;;51.03;;
8254;SDS011;4167;48.162;11.542;2022-11-27T06:05:41;227.00;;;52.33;;
8254;SDS011;4167;48.162;11.542;2022-11-27T06:08:08;311.27;;;56.93;;
8254;SDS011;4167;48.162;11.542;2022-11-27T06:10:36;214.47;;;51.00;;
8254;SDS011;4167;48.162;11.542;2022-11-27T06:13:03;291.93;;;55.83;;
8254;SDS011;4167;48.162;11.542;2022-11-27T06:15:29;254.83;;;53.63;;
8254;SDS011;4167;48.162;11.542;2022-11-27T06:17:56;290.50;;;57.00;;
8254;SDS011;4167;48.162;11.542;2022-11-27T06:20:23;254.67;;;53.47;;
8254;SDS011;4167;48.162;11.542;2022-11-27T06:22:51;307.03;;;57.43;;
8254;SDS011;4167;48.162;11.542;2022-11-27T06:25:17;271.83;;;55.47;;
8254;SDS011;4167;48.162;11.542;2022-11-27T06:27:44;242.87;;;52.63;;
8254;SDS011;4167;48.162;11.542;2022-11-27T06:30:11;380.93;;;62.57;;
8254;SDS011;4167;48.162;11.542;2022-11-27T06:32:38;252.67;;;52.37;;
8254;SDS011;4167;48.162;11.542;2022-11-27T06:35:05;287.60;;;55.47;;
8254;SDS011;4167;48.162;11.542;2022-11-27T06:37:32;291.60;;;56.30;;
8254;SDS011;4167;48.162;11.542;2022-11-27T06:40:00;318.97;;;56.80;;
8254;SDS011;4167;48.162;11.542;2022-11-27T06:42:27;244.10;;;54.10;;
8254;SDS011;4167;48.162;11.542;2022-11-27T06:44:54;263.73;;;54.50;;
8254;SDS011;4167;48.162;11.542;2022-11-27T06:47:21;236.40;;;53.23;;
8254;SDS011;4167;48.162;11.542;2022-11-27T06:49:48;301.37;;;56.27;;
8254;SDS011;4167;48.162;11.542;2022-11-27T06:52:14;270.07;;;54.27;;
8254;SDS011;4167;48.162;11.542;2022-11-27T06:54:41;215.53;;;50.70;;
8254;SDS011;4167;48.162;11.542;2022-11-27T06:57:09;275.83;;;55.27;;
8254;SDS011;4167;48.162;11.542;2022-11-27T06:59:35;353.97;;;60.30;;
8254;SDS011;4167;48.162;11.542;2022-11-27T07:02:02;251.73;;;54.20;;
8254;SDS011;4167;48.162;11.542;2022-11-27T07:04:29;196.67;;;48.73;;
8254;SDS011;4167;48.162;11.542;2022-11-27T07:06:55;203.07;;;51.60;;
8254;SDS011;4167;48.162;11.542;2022-11-27T07:09:22;140.67;;;47.47;;
8254;SDS011;4167;48.162;11.542;2022-11-27T07:11:49;201.70;;;51.83;;
8254;SDS011;4167;48.162;11.542;2022-11-27T07:14:17;180.33;;;50.10;;
8254;SDS011;4167;48.162;11.542;2022-11-27T07:16:43;139.00;;;48.03;;
8254;SDS011;4167;48.162;11.542;2022-11-27T07:19:10;197.20;;;51.67;;
8254;SDS011;4167;48.162;11.542;2022-11-27T07:21:37;174.67;;;50.20;;
8254;SDS011;4167;48.162;11.542;2022-11-27T07:24:05;190.07;;;51.13;;
8254;SDS011;4167;48.162;11.542;2022-11-27T07:26:32;156.37;;;48.63;;
8254;SDS011;4167;48.162;11.542;2022-11-27T07:28:59;241.13;;;53.47;;
8254;SDS011;4167;48.162;11.542;2022-11-27T07:31:27;204.60;;;52.63;;
8254;SDS011;4167;48.162;11.542;2022-11-27T07:33:55;194.93;;;51.37;;
8254;SDS011;4167;48.162;11.542;2022-11-27T07:36:22;140.97;;;48.23;;
8254;SDS011;4167;48.162;11.542;2022-11-27T07:38:49;154.77;;;48.77;;
8254;SDS011;4167;48.162;11.542;2022-11-27T07:41:17;130.90;;;47.53;;
8254;SDS011;4167;48.162;11.542;2022-11-27T07:43:44;114.50;;;46.10;;
8254;SDS011;4167;48.162;11.542;2022-11-27T07:46:12;128.20;;;46.67;;
8254;SDS011;4167;48.162;11.542;2022-11-27T07:48:41;86.20;;;44.93;;
8254;SDS011;4167;48.162;11.542;2022-11-27T07:51:08;167.73;;;48.97;;
8254;SDS011;4167;48.162;11.542;2022-11-27T07:53:36;80.80;;;43.90;;
8254;SDS011;4167;48.162;11.542;2022-11-27T07:56:03;119.40;;;45.73;;
8254;SDS011;4167;48.162;11.542;2022-11-27T07:58:30;103.70;;;43.73;;
8254;SDS011;4167;48.162;11.542;2022-11-27T08:00:57;112.80;;;45.27;;
8254;SDS011;4167;48.162;11.542;2022-11-27T08:03:24;124.27;;;44.73;;
8254;SDS011;4167;48.162;11.542;2022-11-27T08:05:52;106.70;;;45.50;;
8254;SDS011;4167;48.162;11.542;2022-11-27T08:08:19;98.83;;;45.50;;
8254;SDS011;4167;48.162;11.542;2022-11-27T08:10:45;106.60;;;44.10;;
8254;SDS011;4167;48.162;11.542;2022-11-27T08:13:12;127.27;;;45.07;;
8254;SDS011;4167;48.162;11.542;2022-11-27T08:15:38;127.17;;;47.77;;
8254;SDS011;4167;48.162;11.542;2022-11-27T08:18:05;86.83;;;43.50;;
8254;SDS011;4167;48.162;11.542;2022-11-27T08:20:31;106.80;;;45.53;;
8254;SDS011;4167;48.162;11.542;2022-11-27T08:22:59;111.80;;;46.70;;
8254;SDS011;4167;48.162;11.542;2022-11-27T08:25:26;111.47;;;45.90;;
8254;SDS011;4167;48.162;11.542;2022-11-27T08:27:53;130.90;;;46.13;;
8254;SDS011;4167;48.162;11.542;2022-11-27T08:30:20;96.20;;;45.30;;
8254;SDS011;4167;48.162;11.542;2022-11-27T08:32:47;114.90;;;44.77;;
8254;SDS011;4167;48.162;11.542;2022-11-27T08:35:14;107.67;;;47.77;;
8254;SDS011;4167;48.162;11.542;2022-11-27T08:37:41;115.13;;;45.50;;
8254;SDS011;4167;48.162;11.542;2022-11-27T08:40:10;124.50;;;46.40;;
8254;SDS011;4167;48.162;11.542;2022-11-27T08:42:37;126.60;;;47.10;;
8254;SDS011;4167;48.162;11.542;2022-11-27T08:45:03;123.13;;;47.00;;
8254;SDS011;4167;48.162;11.542;2022-11-27T08:47:30;88.37;;;44.77;;
8254;SDS011;4167;48.162;11.542;2022-11-27T08:49:57;134.77;;;47.43;;
8254;SDS011;4167;48.162;11.542;2022-11-27T08:52:24;86.97;;;45.47;;
8254;SDS011;4167;48.162;11.542;2022-11-27T08:54:51;110.30;;;47.93;;
8254;SDS011;4167;48.162;11.542;2022-11-27T08:57:19;127.27;;;47.70;;
8254;SDS011;4167;48.162;11.542;2022-11-27T08:59:45;105.87;;;45.33;;
8254;SDS011;4167;48.162;11.542;2022-11-27T09:02:12;107.83;;;45.37;;
8254;SDS011;4167;48.162;11.542;2022-11-27T09:04:39;117.73;;;46.87;;
8254;SDS011;4167;48.162;11.542;2022-11-27T09:07:06;104.83;;;46.43;;
8254;SDS011;4167;48.162;11.542;2022-11-27T09:09:32;108.80;;;45.80;;
8254;SDS011;4167;48.162;11.542;2022-11-27T09:11:59;118.33;;;47.40;;
8254;SDS011;4167;48.162;11.542;2022-11-27T09:14:27;107.43;;;47.07;;
8254;SDS011;4167;48.162;11.542;2022-11-27T09:16:54;79.23;;;45.07;;
8254;SDS011;4167;48.162;11.542;2022-11-27T09:19:21;115.97;;;47.27;;
8254;SDS011;4167;48.162;11.542;2022-11-27T09:21:48;112.20;;;46.47;;
8254;SDS011;4167;48.162;11.542;2022-11-27T09:24:15;131.77;;;47.93;;
8254;SDS011;4167;48.162;11.542;2022-11-27T09:26:42;107.83;;;46.60;;
8254;SDS011;4167;48.162;11.542;2022-11-27T09:29:09;134.63;;;48.13;;
8254;SDS011;4167;48.162;11.542;2022-11-27T09:31:37;105.00;;;47.53;;
8254;SDS011;4167;48.162;11.542;2022-11-27T09:34:04;171.70;;;49.10;;
8254;SDS011;4167;48.162;11.542;2022-11-27T09:36:31;113.00;;;47.13;;
8254;SDS011;4167;48.162;11.542;2022-11-27T09:38:58;140.83;;;48.63;;
8254;SDS011;4167;48.162;11.542;2022-11-27T09:41:33;107.57;;;46.13;;
8254;SDS011;4167;48.162;11.542;2022-11-27T09:44:15;128.77;;;46.37;;
8254;SDS011;4167;48.162;11.542;2022-11-27T09:46:49;136.57;;;47.83;;
8254;SDS011;4167;48.162;11.542;2022-11-27T09:49:18;115.43;;;45.87;;
8254;SDS011;4167;48.162;11.542;2022-11-27T09:51:49;110.93;;;45.77;;
8254;SDS011;4167;48.162;11.542;2022-11-27T09:54:17;122.30;;;47.40;;
8254;SDS011;4167;48.162;11.542;2022-11-27T09:56:46;111.97;;;46.73;;
8254;SDS011;4167;48.162;11.542;2022-11-27T09:59:16;130.47;;;48.73;;
8254;SDS011;4167;48.162;11.542;2022-11-27T10:01:43;116.57;;;45.80;;
8254;SDS011;4167;48.162;11.542;2022-11-27T10:04:12;164.87;;;48.27;;
8254;SDS011;4167;48.162;11.542;2022-11-27T10:06:44;118.23;;;47.73;;
8254;SDS011;4167;48.162;11.542;2022-11-27T10:09:20;116.70;;;46.57;;
8254;SDS011;4167;48.162;11.542;2022-11-27T10:11:55;86.77;;;45.50;;
8254;SDS011;4167;48.162;11.542;2022-11-27T10:14:32;115.23;;;45.73;;
8254;SDS011;4167;48.162;11.542;2022-11-27T10:17:17;130.07;;;47.63;;
8254;SDS011;4167;48.162;11.542;2022-11-27T10:19:49;129.53;;;47.80;;
8254;SDS011;4167;48.162;11.542;2022-11-27T10:22:18;95.90;;;45.77;;
8254;SDS011;4167;48.162;11.542;2022-11-27T10:24:52;121.63;;;47.80;;
8254;SDS011;4167;48.162;11.542;2022-11-27T10:27:24;127.27;;;47.90;;
8254;SDS011;4167;48.162;11.542;2022-11-27T10:29:54;117.80;;;47.70;;
8254;SDS011;4167;48.162;11.542;2022-11-27T10:32:22;87.40;;;45.87;;
8254;SDS011;4167;48.162;11.542;2022-11-27T10:34:52;133.70;;;47.40;;
8254;SDS011;4167;48.162;11.542;2022-11-27T10:37:22;108.33;;;46.10;;
8254;SDS011;4167;48.162;11.542;2022-11-27T10:39:52;104.33;;;45.40;;
8254;SDS011;4167;48.162;11.542;2022-11-27T10:42:21;134.73;;;47.00;;
8254;SDS011;4167;48.162;11.542;2022-11-27T10:44:58;101.40;;;45.27;;
8254;SDS011;4167;48.162;11.542;2022-11-27T10:47:26;109.23;;;45.30;;
8254;SDS011;4167;48.162;11.542;2022-11-27T10:49:55;132.73;;;47.50;;
8254;SDS011;4167;48.162;11.542;2022-11-27T10:52:23;122.50;;;47.00;;
8254;SDS011;4167;48.162;11.542;2022-11-27T10:54:52;117.63;;;47.00;;
8254;SDS011;4167;48.162;11.542;2022-11-27T10:57:23;129.77;;;47.00;;
8254;SDS011;4167;48.162;11.542;2022-11-27T11:00:01;129.03;;;47.07;;
8254;SDS011;4167;48.162;11.542;2022-11-27T11:02:33;127.80;;;46.83;;
8254;SDS011;4167;48.162;11.542;2022-11-27T11:05:15;144.80;;;48.03;;
8254;SDS011;4167;48.162;11.542;2022-11-27T11:07:52;143.07;;;48.23;;
8254;SDS011;4167;48.162;11.542;2022-11-27T11:10:23;138.27;;;49.77;;
8254;SDS011;4167;48.162;11.542;2022-11-27T11:13:02;147.73;;;48.20;;
8254;SDS011;4167;48.162;11.542;2022-11-27T11:15:30;154.50;;;47.93;;
8254;SDS011;4167;48.162;11.542;2022-11-27T11:17:57;135.73;;;47.97;;
8254;SDS011;4167;48.162;11.542;2022-11-27T11:20:25;128.23;;;47.33;;
8254;SDS011;4167;48.162;11.542;2022-11-27T11:22:51;159.03;;;49.07;;
8254;SDS011;4167;48.162;11.542;2022-11-27T11:25:19;135.57;;;48.30;;
8254;SDS011;4167;48.162;11.542;2022-11-27T11:27:46;130.33;;;48.03;;
8254;SDS011;4167;48.162;11.542;2022-11-27T11:30:19;170.30;;;51.13;;
8254;SDS011;4167;48.162;11.542;2022-11-27T11:32:46;120.27;;;46.80;;
8254;SDS011;4167;48.162;11.542;2022-11-27T11:35:22;136.27;;;48.70;;
8254;SDS011;4167;48.162;11.542;2022-11-27T11:37:51;140.57;;;48.37;;
8254;SDS011;4167;48.162;11.542;2022-11-27T11:40:20;146.70;;;49.33;;
8254;SDS011;4167;48.162;11.542;2022-11-27T11:42:50;146.27;;;48.53;;
8254;SDS011;4167;48.162;11.542;2022-11-27T11:45:18;137.67;;;47.80;;
8254;SDS011;4167;48.162;11.542;2022-11-27T11:47:46;115.03;;;46.83;;
8254;SDS011;4167;48.162;11.542;2022-11-27T11:50:15;135.63;;;47.77;;
8254;SDS011;4167;48.162;11.542;2022-11-27T11:52:51;144.33;;;47.60;;
8254;SDS011;4167;48.162;11.542;2022-11-27T11:55:24;135.90;;;48.13;;
8254;SDS011;4167;48.162;11.542;2022-11-27T11:57:57;142.83;;;47.77;;
8254;SDS011;4167;48.162;11.542;2022-11-27T12:00:44;134.07;;;47.03;;
8254;SDS011;4167;48.162;11.542;2022-11-27T12:03:15;140.00;;;48.57;;
8254;SDS011;4167;48.162;11.542;2022-11-27T12:05:53;123.17;;;46.37;;
8254;SDS011;4167;48.162;11.542;2022-11-27T12:08:32;134.50;;;47.40;;
8254;SDS011;4167;48.162;11.542;2022-11-27T12:11:06;148.93;;;48.67;;
8254;SDS011;4167;48.162;11.542;2022-11-27T12:13:38;137.20;;;47.10;;
8254;SDS011;4167;48.162;11.542;2022-11-27T12:16:11;142.47;;;48.47;;
8254;SDS011;4167;48.162;11.542;2022-11-27T12:18:43;123.80;;;47.20;;
8254;SDS011;4167;48.162;11.542;2022-11-27T12:21:16;169.43;;;50.10;;
8254;SDS011;4167;48.162;11.542;2022-11-27T12:26:25;117.97;;;46.33;;
8254;SDS011;4167;48.162;11.542;2022-11-27T12:29:02;166.90;;;49.73;;
8254;SDS011;4167;48.162;11.542;2022-11-27T12:31:51;121.87;;;46.20;;
8254;SDS011;4167;48.162;11.542;2022-11-27T12:34:26;154.80;;;48.30;;
8254;SDS011;4167;48.162;11.542;2022-11-27T12:37:04;161.23;;;49.23;;
8254;SDS011;4167;48.162;11.542;2022-11-27T12:39:39;113.47;;;46.47;;
8254;SDS011;4167;48.162;11.542;2022-11-27T12:42:17;152.27;;;49.03;;
8254;SDS011;4167;48.162;11.542;2022-11-27T12:44:49;185.93;;;50.87;;
8254;SDS011;4167;48.162;11.542;2022-11-27T12:47:20;153.33;;;48.27;;
8254;SDS011;4167;48.162;11.542;2022-11-27T12:49:50;133.93;;;49.33;;
8254;SDS011;4167;48.162;11.542;2022-11-27T12:52:20;123.53;;;47.63;;
8254;SDS011;4167;48.162;11.542;2022-11-27T12:54:51;161.17;;;51.47;;
8254;SDS011;4167;48.162;11.542;2022-11-27T12:57:22;148.60;;;48.77;;
8254;SDS011;4167;48.162;11.542;2022-11-27T12:59:57;168.60;;;50.40;;
8254;SDS011;4167;48.162;11.542;2022-11-27T13:02:27;133.87;;;48.60;;
8254;SDS011;4167;48.162;11.542;2022-11-27T13:04:57;132.93;;;48.60;;
8254;SDS011;4167;48.162;11.542;2022-11-27T13:07:26;165.27;;;50.80;;
8254;SDS011;4167;48.162;11.542;2022-11-27T13:09:56;179.10;;;50.70;;
8254;SDS011;4167;48.162;11.542;2022-11-27T13:12:27;125.10;;;47.80;;
8254;SDS011;4167;48.162;11.542;2022-11-27T13:14:56;140.27;;;49.10;;
8254;SDS011;4167;48.162;11.542;2022-11-27T13:17:28;152.40;;;49.03;;
8254;SDS011;4167;48.162;11.542;2022-11-27T13:19:57;146.20;;;47.40;;
8254;SDS011;4167;48.162;11.542;2022-11-27T13:22:26;128.17;;;48.20;;
8254;SDS011;4167;48.162;11.542;2022-11-27T13:24:55;181.30;;;51.23;;
8254;SDS011;4167;48.162;11.542;2022-11-27T13:27:25;156.73;;;50.10;;
8254;SDS011;4167;48.162;11.542;2022-11-27T13:29:54;145.90;;;48.47;;
8254;SDS011;4167;48.162;11.542;2022-11-27T13:32:24;134.50;;;47.37;;
8254;SDS011;4167;48.162;11.542;2022-11-27T13:34:52;144.77;;;48.30;;
8254;SDS011;4167;48.162;11.542;2022-11-27T13:37:24;165.03;;;50.53;;
8254;SDS011;4167;48.162;11.542;2022-11-27T13:39:58;176.43;;;49.90;;
8254;SDS011;4167;48.162;11.542;2022-11-27T13:42:26;161.53;;;48.93;;
8254;SDS011;4167;48.162;11.542;2022-11-27T13:44:54;172.57;;;50.53;;
8254;SDS011;4167;48.162;11.542;2022-11-27T13:47:22;141.40;;;49.37;;
8254;SDS011;4167;48.162;11.542;2022-11-27T13:49:56;158.07;;;49.93;;
8254;SDS011;4167;48.162;11.542;2022-11-27T13:52:24;165.83;;;50.90;;
8254;SDS011;4167;48.162;11.542;2022-11-27T13:54:51;174.80;;;52.37;;
8254;SDS011;4167;48.162;11.542;2022-11-27T13:57:20;158.17;;;49.63;;
8254;SDS011;4167;48.162;11.542;2022-11-27T13:59:54;155.27;;;51.87;;
8254;SDS011;4167;48.162;11.542;2022-11-27T14:02:22;144.33;;;50.43;;
8254;SDS011;4167;48.162;11.542;2022-11-27T14:04:50;170.07;;;50.80;;
8254;SDS011;4167;48.162;11.542;2022-11-27T14:07:17;167.13;;;50.63;;
8254;SDS011;4167;48.162;11.542;2022-11-27T14:09:46;150.40;;;50.33;;
8254;SDS011;4167;48.162;11.542;2022-11-27T14:12:18;158.50;;;51.37;;
8254;SDS011;4167;48.162;11.542;2022-11-27T14:14:59;162.87;;;50.57;;
8254;SDS011;4167;48.162;11.542;2022-11-27T14:17:33;158.70;;;49.53;;
8254;SDS011;4167;48.162;11.542;2022-11-27T14:20:03;152.03;;;47.73;;
8254;SDS011;4167;48.162;11.542;2022-11-27T14:22:33;166.60;;;49.87;;
8254;SDS011;4167;48.162;11.542;2022-11-27T14:25:01;166.93;;;50.97;;
8254;SDS011;4167;48.162;11.542;2022-11-27T14:27:33;161.10;;;51.13;;
8254;SDS011;4167;48.162;11.542;2022-11-27T14:30:10;146.43;;;50.27;;
8254;SDS011;4167;48.162;11.542;2022-11-27T14:32:46;167.00;;;50.07;;
8254;SDS011;4167;48.162;11.542;2022-11-27T14:35:18;166.03;;;53.00;;